createdAt,value
2018-12-03T00:01:51.669Z,9.90
2018-12-03T00:04:21.463Z,9.90
2018-12-03T00:06:49.740Z,9.80
2018-12-03T00:09:18.051Z,9.90
2018-12-03T00:11:45.979Z,9.80
2018-12-03T00:14:13.777Z,9.70
2018-12-03T00:16:41.674Z,9.70
2018-12-03T00:19:09.635Z,9.70
2018-12-03T00:21:38.152Z,9.60
2018-12-03T00:24:06.907Z,9.70
2018-12-03T00:26:34.958Z,9.70
2018-12-03T00:29:02.919Z,9.60
2018-12-03T00:31:31.154Z,9.70
2018-12-03T00:33:59.048Z,9.60
2018-12-03T00:36:26.937Z,9.50
2018-12-03T00:38:54.947Z,9.70
2018-12-03T00:41:22.843Z,9.50
2018-12-03T00:43:50.751Z,9.30
2018-12-03T00:46:18.810Z,9.50
2018-12-03T00:48:46.664Z,9.60
2018-12-03T00:51:14.666Z,9.60
2018-12-03T00:53:42.480Z,9.50
2018-12-03T00:56:10.280Z,9.30
2018-12-03T00:58:38.087Z,9.40
2018-12-03T01:01:06.059Z,9.30
2018-12-03T01:03:33.850Z,9.30
2018-12-03T01:06:01.631Z,9.40
2018-12-03T01:08:29.768Z,9.40
2018-12-03T01:10:57.563Z,9.60
2018-12-03T01:13:25.386Z,9.40
2018-12-03T01:15:53.531Z,9.50
2018-12-03T01:18:21.454Z,9.80
2018-12-03T01:20:49.380Z,9.80
2018-12-03T01:23:17.231Z,9.70
2018-12-03T01:25:45.059Z,9.50
2018-12-03T01:28:13.035Z,9.50
2018-12-03T01:30:43.185Z,9.50
2018-12-03T01:33:11.015Z,9.40
2018-12-03T01:35:39.888Z,9.50
2018-12-03T01:38:07.690Z,9.60
2018-12-03T01:40:35.457Z,9.60
2018-12-03T01:43:04.391Z,9.90
2018-12-03T01:45:32.231Z,10.50
2018-12-03T01:48:00.034Z,10.00
2018-12-03T01:50:27.880Z,10.00
2018-12-03T01:52:55.743Z,10.00
2018-12-03T01:55:23.656Z,10.10
2018-12-03T01:57:51.615Z,10.30
2018-12-03T02:00:19.927Z,10.40
2018-12-03T02:02:47.743Z,10.50
2018-12-03T02:05:15.708Z,10.70
2018-12-03T02:07:43.543Z,10.30
2018-12-03T02:10:12.428Z,10.40
2018-12-03T02:12:40.291Z,10.40
2018-12-03T02:15:13.353Z,10.20
2018-12-03T02:17:41.465Z,10.00
2018-12-03T02:20:10.884Z,10.00
2018-12-03T02:22:38.731Z,10.20
2018-12-03T02:25:07.767Z,10.30
2018-12-03T02:27:35.618Z,10.40
2018-12-03T02:30:05.480Z,10.30
2018-12-03T02:32:33.303Z,10.20
2018-12-03T02:35:01.092Z,10.40
2018-12-03T02:37:28.912Z,10.40
2018-12-03T02:39:56.755Z,10.50
2018-12-03T02:42:24.552Z,10.50
2018-12-03T02:44:52.354Z,10.50
2018-12-03T02:47:20.163Z,10.30
2018-12-03T02:49:47.964Z,10.10
2018-12-03T02:52:15.838Z,10.00
2018-12-03T02:54:43.745Z,10.00
2018-12-03T02:57:11.524Z,9.90
2018-12-03T02:59:39.310Z,9.90
2018-12-03T03:02:07.135Z,9.90
2018-12-03T03:04:34.969Z,9.90
2018-12-03T03:07:02.788Z,10.00
2018-12-03T03:09:30.565Z,10.10
2018-12-03T03:11:58.471Z,10.10
2018-12-03T03:14:26.267Z,10.20
2018-12-03T03:16:54.109Z,10.20
2018-12-03T03:19:21.936Z,10.20
2018-12-03T03:21:49.739Z,10.50
2018-12-03T03:24:17.532Z,10.60
2018-12-03T03:26:45.394Z,10.70
2018-12-03T03:29:13.238Z,10.80
2018-12-03T03:31:41.174Z,10.70
2018-12-03T03:34:09.150Z,10.90
2018-12-03T03:36:37.043Z,11.00
2018-12-03T03:39:07.139Z,11.00
2018-12-03T03:41:34.952Z,11.00
2018-12-03T03:44:03.142Z,11.10
2018-12-03T03:46:30.971Z,11.00
2018-12-03T03:48:58.812Z,11.00
2018-12-03T03:51:26.690Z,11.00
2018-12-03T03:53:54.683Z,10.70
2018-12-03T03:56:22.536Z,10.70
2018-12-03T03:58:51.211Z,10.60
2018-12-03T04:01:19.017Z,10.50
2018-12-03T04:03:46.903Z,10.30
2018-12-03T04:06:16.004Z,10.30
2018-12-03T04:08:43.790Z,10.40
2018-12-03T04:11:11.803Z,10.30
2018-12-03T04:13:39.611Z,10.40
2018-12-03T04:16:07.407Z,10.70
2018-12-03T04:18:35.220Z,10.70
2018-12-03T04:21:03.045Z,10.60
2018-12-03T04:23:30.905Z,10.60
2018-12-03T04:25:58.748Z,10.60
2018-12-03T04:28:26.786Z,10.80
2018-12-03T04:30:55.787Z,10.70
2018-12-03T04:33:23.640Z,11.10
2018-12-03T04:35:51.824Z,10.90
2018-12-03T04:38:19.679Z,11.10
2018-12-03T04:40:47.446Z,11.30
2018-12-03T04:43:15.256Z,11.30
2018-12-03T04:45:43.128Z,11.10
2018-12-03T04:48:11.156Z,11.10
2018-12-03T04:50:40.059Z,11.20
2018-12-03T04:53:08.090Z,11.00
2018-12-03T04:55:36.247Z,10.90
2018-12-03T04:58:04.237Z,10.70
2018-12-03T05:00:32.072Z,10.60
2018-12-03T05:02:59.964Z,10.60
2018-12-03T05:05:27.811Z,10.50
2018-12-03T05:07:55.603Z,10.50
2018-12-03T05:10:23.388Z,10.40
2018-12-03T05:12:52.373Z,10.30
2018-12-03T05:15:20.175Z,10.20
2018-12-03T05:17:47.990Z,10.30
2018-12-03T05:20:18.377Z,10.30
2018-12-03T05:22:46.234Z,10.40
2018-12-03T05:25:19.142Z,10.40
2018-12-03T05:27:42.349Z,10.20
2018-12-03T05:30:12.167Z,10.20
2018-12-03T05:32:40.461Z,10.40
2018-12-03T05:35:10.446Z,10.40
2018-12-03T05:37:38.304Z,10.60
2018-12-03T05:40:11.687Z,10.60
2018-12-03T05:42:39.567Z,10.60
2018-12-03T05:45:08.267Z,10.60
2018-12-03T05:47:36.102Z,10.50
2018-12-03T05:50:05.460Z,10.80
2018-12-03T05:52:33.234Z,11.10
2018-12-03T05:55:01.308Z,11.30
2018-12-03T05:57:29.103Z,11.20
2018-12-03T05:59:56.876Z,11.10
2018-12-03T06:02:24.695Z,11.30
2018-12-03T06:04:52.935Z,11.30
2018-12-03T06:07:20.843Z,11.30
2018-12-03T06:09:48.699Z,11.30
2018-12-03T06:12:16.591Z,11.30
2018-12-03T06:14:44.414Z,11.30
2018-12-03T06:17:12.584Z,11.30
2018-12-03T06:19:40.452Z,11.30
2018-12-03T06:22:08.395Z,11.40
2018-12-03T06:24:36.188Z,11.20
2018-12-03T06:27:04.334Z,11.00
2018-12-03T06:29:32.230Z,10.90
2018-12-03T06:32:00.165Z,10.80
2018-12-03T06:34:27.983Z,10.70
2018-12-03T06:36:55.816Z,10.60
2018-12-03T06:39:23.827Z,10.70
2018-12-03T06:41:51.630Z,10.70
2018-12-03T06:44:19.455Z,10.90
2018-12-03T06:46:47.331Z,10.80
2018-12-03T06:49:15.248Z,11.00
2018-12-03T06:51:43.279Z,10.90
2018-12-03T06:54:11.224Z,10.90
2018-12-03T06:56:39.043Z,10.80
2018-12-03T06:59:06.851Z,10.80
2018-12-03T07:01:34.636Z,10.80
2018-12-03T07:04:03.167Z,11.20
2018-12-03T07:06:31.015Z,11.20
2018-12-03T07:08:58.843Z,11.20
2018-12-03T07:11:26.651Z,11.10
2018-12-03T07:13:55.249Z,11.10
2018-12-03T07:16:23.062Z,11.30
2018-12-03T07:18:50.931Z,11.80
2018-12-03T07:21:18.744Z,11.50
2018-12-03T07:23:46.539Z,11.60
2018-12-03T07:26:14.447Z,11.50
2018-12-03T07:28:42.540Z,11.40
2018-12-03T07:31:11.668Z,11.30
2018-12-03T07:33:40.802Z,11.30
2018-12-03T07:36:08.626Z,11.20
2018-12-03T07:38:36.443Z,11.30
2018-12-03T07:41:05.413Z,11.40
2018-12-03T07:43:33.214Z,11.50
2018-12-03T07:46:01.068Z,11.80
2018-12-03T07:48:28.859Z,11.80
2018-12-03T07:50:56.648Z,11.80
2018-12-03T07:53:24.490Z,11.80
2018-12-03T07:55:52.280Z,12.00
2018-12-03T07:58:21.127Z,12.00
2018-12-03T08:00:51.767Z,11.90
2018-12-03T08:03:19.832Z,11.80
2018-12-03T08:05:47.648Z,11.90
2018-12-03T08:08:15.452Z,11.90
2018-12-03T08:10:45.742Z,11.70
2018-12-03T08:13:14.292Z,11.60
2018-12-03T08:15:42.463Z,11.50
2018-12-03T08:18:14.509Z,11.50
2018-12-03T08:20:45.691Z,11.50
2018-12-03T08:23:20.562Z,11.60
2018-12-03T08:25:48.357Z,11.50
2018-12-03T08:28:16.211Z,11.40
2018-12-03T08:30:44.302Z,11.50
2018-12-03T08:33:12.127Z,11.50
2018-12-03T08:35:39.977Z,11.40
2018-12-03T08:38:07.783Z,11.40
2018-12-03T08:40:35.598Z,11.30
2018-12-03T08:43:03.411Z,11.40
2018-12-03T08:45:31.191Z,11.80
2018-12-03T08:47:58.960Z,11.70
2018-12-03T08:50:27.855Z,11.70
2018-12-03T08:52:56.722Z,11.60
2018-12-03T08:55:24.494Z,11.50
2018-12-03T08:57:52.378Z,11.60
2018-12-03T09:00:26.409Z,11.60
2018-12-03T09:02:59.190Z,11.60
2018-12-03T09:05:30.416Z,11.90
2018-12-03T09:07:58.239Z,11.80
2018-12-03T09:10:26.056Z,11.80
2018-12-03T09:12:53.863Z,11.80
2018-12-03T09:15:21.779Z,11.90
2018-12-03T09:17:49.632Z,12.00
2018-12-03T09:20:17.417Z,12.00
2018-12-03T09:22:45.195Z,12.00
2018-12-03T09:25:23.182Z,12.00
2018-12-03T09:27:51.092Z,12.10
2018-12-03T09:30:18.977Z,12.20
2018-12-03T09:32:46.969Z,12.10
2018-12-03T09:35:14.916Z,12.10
2018-12-03T09:37:42.967Z,12.00
2018-12-03T09:40:13.770Z,12.10
2018-12-03T09:42:41.592Z,12.20
2018-12-03T09:45:13.187Z,12.30
2018-12-03T09:47:41.027Z,12.30
2018-12-03T09:50:24.037Z,12.30
2018-12-03T09:52:52.055Z,12.30
2018-12-03T09:55:22.923Z,12.30
2018-12-03T09:58:11.613Z,12.20
2018-12-03T10:00:39.461Z,12.20
2018-12-03T10:03:17.003Z,12.00
2018-12-03T10:05:49.607Z,12.00
2018-12-03T10:08:18.439Z,11.90
2018-12-03T10:10:49.407Z,11.90
2018-12-03T10:13:17.163Z,11.90
2018-12-03T10:15:44.979Z,12.00
2018-12-03T10:18:12.828Z,12.10
2018-12-03T10:20:42.262Z,12.00
2018-12-03T10:23:08.631Z,12.20
2018-12-03T10:25:36.431Z,12.30
2018-12-03T10:28:06.548Z,12.20
2018-12-03T10:30:34.371Z,12.20
2018-12-03T10:33:02.188Z,12.10
2018-12-03T10:35:38.800Z,12.10
2018-12-03T10:38:12.455Z,12.30
2018-12-03T10:40:42.428Z,12.30
2018-12-03T10:43:11.174Z,12.20
2018-12-03T10:45:39.019Z,12.30
2018-12-03T10:48:06.887Z,12.50
2018-12-03T10:50:35.111Z,12.60
2018-12-03T10:53:02.982Z,12.50
2018-12-03T10:55:31.015Z,12.50
2018-12-03T10:57:58.838Z,12.50
2018-12-03T11:00:32.091Z,12.60
2018-12-03T11:03:01.890Z,12.70
2018-12-03T11:05:36.487Z,12.80
2018-12-03T11:08:04.575Z,12.80
2018-12-03T11:10:34.879Z,12.60
2018-12-03T11:13:02.687Z,12.60
2018-12-03T11:15:30.575Z,12.60
2018-12-03T11:17:59.030Z,12.40
2018-12-03T11:20:26.879Z,12.40
2018-12-03T11:22:57.174Z,12.60
2018-12-03T11:25:28.671Z,12.60
2018-12-03T11:27:57.210Z,12.60
2018-12-03T11:30:25.093Z,12.40
2018-12-03T11:32:54.600Z,12.40
2018-12-03T11:35:25.319Z,12.30
2018-12-03T11:37:59.007Z,12.30
2018-12-03T11:41:00.522Z,12.30
2018-12-03T11:43:29.779Z,12.20
2018-12-03T11:45:57.651Z,12.50
2018-12-03T11:48:25.483Z,12.60
2018-12-03T11:50:53.334Z,12.70
2018-12-03T11:53:21.148Z,12.60
2018-12-03T11:55:48.935Z,12.50
2018-12-03T11:58:16.876Z,12.50
2018-12-03T12:00:44.914Z,12.90
2018-12-03T12:03:12.771Z,12.60
2018-12-03T12:05:40.535Z,12.70
2018-12-03T12:08:08.294Z,12.80
2018-12-03T12:10:36.071Z,12.90
2018-12-03T12:13:04.075Z,13.00
2018-12-03T12:15:31.938Z,12.90
2018-12-03T12:17:59.824Z,13.10
2018-12-03T12:20:27.631Z,13.30
2018-12-03T12:22:55.463Z,13.40
2018-12-03T12:25:23.243Z,13.40
2018-12-03T12:27:54.159Z,13.50
2018-12-03T12:30:22.032Z,13.40
2018-12-03T12:32:49.923Z,13.60
2018-12-03T12:35:17.759Z,13.30
2018-12-03T12:37:45.867Z,13.40
2018-12-03T12:40:13.944Z,13.30
2018-12-03T12:42:42.662Z,13.20
2018-12-03T12:45:13.683Z,13.10
2018-12-03T12:47:41.499Z,13.00
2018-12-03T12:50:12.991Z,12.90
2018-12-03T12:52:40.802Z,12.90
2018-12-03T12:55:08.639Z,12.90
2018-12-03T12:57:36.495Z,12.90
2018-12-03T13:00:15.529Z,12.80
2018-12-03T13:02:45.179Z,12.90
2018-12-03T13:05:13.096Z,12.90
2018-12-03T13:07:40.891Z,13.00
2018-12-03T13:10:11.681Z,13.20
2018-12-03T13:12:39.499Z,13.10
2018-12-03T13:15:10.607Z,13.30
2018-12-03T13:17:38.446Z,13.20
2018-12-03T13:20:09.999Z,13.10
2018-12-03T13:22:37.771Z,13.10
2018-12-03T13:25:11.190Z,13.00
2018-12-03T13:27:39.040Z,13.10
2018-12-03T13:30:10.372Z,13.00
2018-12-03T13:32:38.223Z,12.90
2018-12-03T13:35:07.456Z,13.00
2018-12-03T13:37:35.260Z,12.90
2018-12-03T13:40:03.307Z,12.80
2018-12-03T13:42:31.103Z,12.80
2018-12-03T13:44:59.461Z,13.00
2018-12-03T13:47:27.276Z,13.00
2018-12-03T13:49:55.058Z,13.00
2018-12-03T13:52:22.911Z,12.90
2018-12-03T13:54:50.759Z,12.90
2018-12-03T13:57:18.647Z,13.00
2018-12-03T13:59:46.595Z,12.90
2018-12-03T14:02:14.379Z,13.00
2018-12-03T14:04:42.239Z,13.20
2018-12-03T14:07:17.276Z,13.30
2018-12-03T14:10:07.993Z,13.40
2018-12-03T14:12:46.199Z,13.40
2018-12-03T14:15:24.822Z,13.50
2018-12-03T14:18:30.917Z,13.20
2018-12-03T14:21:19.059Z,13.00
2018-12-03T14:23:49.284Z,12.90
2018-12-03T14:26:17.249Z,12.80
2018-12-03T14:28:45.130Z,12.70
2018-12-03T14:31:12.962Z,12.70
2018-12-03T14:33:40.756Z,12.60
2018-12-03T14:36:08.895Z,12.70
2018-12-03T14:38:36.738Z,12.60
2018-12-03T14:41:04.636Z,12.60
2018-12-03T14:43:32.463Z,12.70
2018-12-03T14:46:00.287Z,12.60
2018-12-03T14:48:28.064Z,12.60
2018-12-03T14:50:55.879Z,12.60
2018-12-03T14:53:24.799Z,12.60
2018-12-03T14:55:52.690Z,12.50
2018-12-03T14:58:20.507Z,12.50
2018-12-03T15:00:48.355Z,12.50
2018-12-03T15:03:16.333Z,12.60
2018-12-03T15:05:44.147Z,12.70
2018-12-03T15:08:11.967Z,12.80
2018-12-03T15:10:39.783Z,12.80
2018-12-03T15:13:07.605Z,12.70
2018-12-03T15:15:35.416Z,12.80
2018-12-03T15:18:03.287Z,12.80
2018-12-03T15:20:31.103Z,12.90
2018-12-03T15:22:58.906Z,13.00
2018-12-03T15:25:26.683Z,13.20
2018-12-03T15:27:54.511Z,13.40
2018-12-03T15:30:22.321Z,13.30
2018-12-03T15:32:50.167Z,13.20
2018-12-03T15:35:18.108Z,13.00
2018-12-03T15:37:46.181Z,12.90
2018-12-03T15:40:15.604Z,12.80
2018-12-03T15:42:43.395Z,12.80
2018-12-03T15:45:13.191Z,12.70
2018-12-03T15:47:41.008Z,12.90
2018-12-03T15:50:08.854Z,12.90
2018-12-03T15:52:36.627Z,12.80
2018-12-03T15:55:05.511Z,12.70
2018-12-03T15:57:33.372Z,12.70
2018-12-03T16:00:01.263Z,12.60
2018-12-03T16:02:29.119Z,12.60
2018-12-03T16:04:56.941Z,12.60
2018-12-03T16:07:24.736Z,12.70
2018-12-03T16:09:52.535Z,12.70
2018-12-03T16:12:20.379Z,12.80
2018-12-03T16:14:48.292Z,12.80
2018-12-03T16:17:20.161Z,12.90
2018-12-03T16:19:44.180Z,12.90
2018-12-03T16:22:11.973Z,12.90
2018-12-03T16:24:40.035Z,12.90
2018-12-03T16:27:07.848Z,13.00
2018-12-03T16:29:35.658Z,12.90
2018-12-03T16:32:03.503Z,13.00
2018-12-03T16:34:31.304Z,13.10
2018-12-03T16:36:59.229Z,13.40
2018-12-03T16:39:27.003Z,13.80
2018-12-03T16:41:54.778Z,14.10
2018-12-03T16:44:22.631Z,14.20
2018-12-03T16:46:50.531Z,14.40
2018-12-03T16:49:18.553Z,14.40
2018-12-03T16:51:46.355Z,14.40
2018-12-03T16:54:14.159Z,14.30
2018-12-03T16:56:42.148Z,14.30
2018-12-03T16:59:09.964Z,14.30
2018-12-03T17:01:37.773Z,14.20
2018-12-03T17:04:05.658Z,14.20
2018-12-03T17:06:33.539Z,14.20
2018-12-03T17:09:01.335Z,14.20
2018-12-03T17:11:29.123Z,14.20
2018-12-03T17:13:56.952Z,14.20
2018-12-03T17:16:24.749Z,14.20
2018-12-03T17:18:52.544Z,14.20
2018-12-03T17:21:31.312Z,14.10
2018-12-03T17:24:05.339Z,14.20
2018-12-03T17:26:33.503Z,14.20
2018-12-03T17:29:01.320Z,14.10
2018-12-03T17:31:29.179Z,14.00
2018-12-03T17:33:56.940Z,14.00
2018-12-03T17:36:25.096Z,14.10
2018-12-03T17:38:53.116Z,14.20
2018-12-03T17:41:35.595Z,14.20
2018-12-03T17:44:04.000Z,14.00
2018-12-03T17:46:34.104Z,13.90
2018-12-03T17:49:01.999Z,13.90
2018-12-03T17:51:29.816Z,13.80
2018-12-03T17:53:57.599Z,13.70
2018-12-03T17:56:25.456Z,13.60
2018-12-03T17:58:56.229Z,13.50
2018-12-03T18:01:24.137Z,13.70
2018-12-03T18:03:51.957Z,13.60
